sensor_id;sensor_type;location;lat;lon;timestamp;temperature;humidity
40434;DHT22;26146;51.114;5.654;2023-01-19T00:01:37;2.80;99.90
40434;DHT22;26146;51.114;5.654;2023-01-19T00:05:38;2.90;99.90
40434;DHT22;26146;51.114;5.654;2023-01-19T00:09:42;2.80;99.90
40434;DHT22;26146;51.114;5.654;2023-01-19T00:13:43;2.90;99.90
40434;DHT22;26146;51.114;5.654;2023-01-19T00:17:50;2.80;99.90
40434;DHT22;26146;51.114;5.654;2023-01-19T00:21:51;2.70;99.90
40434;DHT22;26146;51.114;5.654;2023-01-19T00:25:52;2.70;99.90
40434;DHT22;26146;51.114;5.654;2023-01-19T00:29:53;2.70;99.90
40434;DHT22;26146;51.114;5.654;2023-01-19T00:33:54;2.70;99.90
40434;DHT22;26146;51.114;5.654;2023-01-19T00:37:56;2.90;99.90
40434;DHT22;26146;51.114;5.654;2023-01-19T00:41:57;2.70;99.90
40434;DHT22;26146;51.114;5.654;2023-01-19T00:46:17;2.80;99.90
40434;DHT22;26146;51.114;5.654;2023-01-19T00:50:22;2.80;99.90
40434;DHT22;26146;51.114;5.654;2023-01-19T00:54:23;3.00;99.90
40434;DHT22;26146;51.114;5.654;2023-01-19T00:58:24;3.10;99.90
40434;DHT22;26146;51.114;5.654;2023-01-19T01:02:25;3.00;99.90
40434;DHT22;26146;51.114;5.654;2023-01-19T01:06:26;3.00;99.90
40434;DHT22;26146;51.114;5.654;2023-01-19T01:10:28;3.00;99.90
40434;DHT22;26146;51.114;5.654;2023-01-19T01:14:29;3.00;99.90
40434;DHT22;26146;51.114;5.654;2023-01-19T01:18:30;3.00;99.90
40434;DHT22;26146;51.114;5.654;2023-01-19T01:22:31;3.10;99.90
40434;DHT22;26146;51.114;5.654;2023-01-19T01:26:32;3.10;99.90
40434;DHT22;26146;51.114;5.654;2023-01-19T01:30:36;3.00;99.90
40434;DHT22;26146;51.114;5.654;2023-01-19T01:34:41;3.00;99.90
40434;DHT22;26146;51.114;5.654;2023-01-19T01:38:42;2.90;99.90
40434;DHT22;26146;51.114;5.654;2023-01-19T01:42:43;3.00;99.90
40434;DHT22;26146;51.114;5.654;2023-01-19T01:46:45;3.10;99.90
40434;DHT22;26146;51.114;5.654;2023-01-19T01:51:00;3.00;99.90
40434;DHT22;26146;51.114;5.654;2023-01-19T01:55:22;3.00;99.90
40434;DHT22;26146;51.114;5.654;2023-01-19T01:59:27;3.00;99.90
40434;DHT22;26146;51.114;5.654;2023-01-19T02:03:37;3.10;99.90
40434;DHT22;26146;51.114;5.654;2023-01-19T02:12:04;3.00;99.90
40434;DHT22;26146;51.114;5.654;2023-01-19T02:16:24;3.00;99.90
40434;DHT22;26146;51.114;5.654;2023-01-19T02:20:27;3.00;99.90
40434;DHT22;26146;51.114;5.654;2023-01-19T02:24:29;3.10;99.90
40434;DHT22;26146;51.114;5.654;2023-01-19T02:28:30;3.20;99.90
40434;DHT22;26146;51.114;5.654;2023-01-19T02:32:32;3.30;99.90
40434;DHT22;26146;51.114;5.654;2023-01-19T02:40:46;3.30;99.90
40434;DHT22;26146;51.114;5.654;2023-01-19T02:44:49;3.30;99.90
40434;DHT22;26146;51.114;5.654;2023-01-19T02:48:51;3.40;99.90
40434;DHT22;26146;51.114;5.654;2023-01-19T02:52:54;3.40;99.90
40434;DHT22;26146;51.114;5.654;2023-01-19T02:57:25;3.40;99.90
40434;DHT22;26146;51.114;5.654;2023-01-19T03:01:59;3.50;99.90
40434;DHT22;26146;51.114;5.654;2023-01-19T03:06:10;3.40;99.90
40434;DHT22;26146;51.114;5.654;2023-01-19T03:10:35;3.40;99.90
40434;DHT22;26146;51.114;5.654;2023-01-19T03:14:42;3.30;99.90
40434;DHT22;26146;51.114;5.654;2023-01-19T03:18:50;3.30;99.90
40434;DHT22;26146;51.114;5.654;2023-01-19T03:23:01;3.40;99.90
40434;DHT22;26146;51.114;5.654;2023-01-19T03:27:10;3.40;99.90
40434;DHT22;26146;51.114;5.654;2023-01-19T03:31:19;3.30;99.90
40434;DHT22;26146;51.114;5.654;2023-01-19T03:35:22;3.20;99.90
40434;DHT22;26146;51.114;5.654;2023-01-19T03:39:26;3.40;99.90
40434;DHT22;26146;51.114;5.654;2023-01-19T03:43:27;3.40;99.90
40434;DHT22;26146;51.114;5.654;2023-01-19T03:47:32;3.50;99.90
40434;DHT22;26146;51.114;5.654;2023-01-19T03:51:37;3.40;99.90
40434;DHT22;26146;51.114;5.654;2023-01-19T03:55:41;3.50;99.90
40434;DHT22;26146;51.114;5.654;2023-01-19T03:59:42;3.50;99.90
40434;DHT22;26146;51.114;5.654;2023-01-19T04:03:43;3.50;99.90
40434;DHT22;26146;51.114;5.654;2023-01-19T04:07:50;3.30;99.90
40434;DHT22;26146;51.114;5.654;2023-01-19T04:11:51;3.40;99.90
40434;DHT22;26146;51.114;5.654;2023-01-19T04:15:52;3.40;99.90
40434;DHT22;26146;51.114;5.654;2023-01-19T04:19:53;3.50;99.90
40434;DHT22;26146;51.114;5.654;2023-01-19T04:23:54;3.50;99.90
40434;DHT22;26146;51.114;5.654;2023-01-19T04:27:55;3.40;99.90
40434;DHT22;26146;51.114;5.654;2023-01-19T04:31:59;3.40;99.90
40434;DHT22;26146;51.114;5.654;2023-01-19T04:36:01;3.40;99.90
40434;DHT22;26146;51.114;5.654;2023-01-19T04:40:04;3.20;99.90
40434;DHT22;26146;51.114;5.654;2023-01-19T04:44:07;3.30;99.90
40434;DHT22;26146;51.114;5.654;2023-01-19T04:48:14;3.40;99.90
40434;DHT22;26146;51.114;5.654;2023-01-19T04:52:18;3.20;99.90
40434;DHT22;26146;51.114;5.654;2023-01-19T04:56:20;3.20;99.90
40434;DHT22;26146;51.114;5.654;2023-01-19T05:00:21;3.20;99.90
40434;DHT22;26146;51.114;5.654;2023-01-19T05:04:25;3.20;99.90
40434;DHT22;26146;51.114;5.654;2023-01-19T05:08:27;3.30;99.90
40434;DHT22;26146;51.114;5.654;2023-01-19T05:12:28;3.20;99.90
40434;DHT22;26146;51.114;5.654;2023-01-19T05:16:29;3.20;99.90
40434;DHT22;26146;51.114;5.654;2023-01-19T05:20:30;3.20;99.90
40434;DHT22;26146;51.114;5.654;2023-01-19T05:24:31;3.30;99.90
40434;DHT22;26146;51.114;5.654;2023-01-19T05:28:35;3.40;99.90
40434;DHT22;26146;51.114;5.654;2023-01-19T05:32:36;3.40;99.90
40434;DHT22;26146;51.114;5.654;2023-01-19T05:36:37;3.10;99.90
40434;DHT22;26146;51.114;5.654;2023-01-19T05:40:41;3.10;99.90
40434;DHT22;26146;51.114;5.654;2023-01-19T05:44:44;2.80;99.90
40434;DHT22;26146;51.114;5.654;2023-01-19T05:48:45;2.70;99.90
40434;DHT22;26146;51.114;5.654;2023-01-19T05:52:46;2.80;99.90
40434;DHT22;26146;51.114;5.654;2023-01-19T05:56:47;2.90;99.90
40434;DHT22;26146;51.114;5.654;2023-01-19T06:00:48;2.80;99.90
40434;DHT22;26146;51.114;5.654;2023-01-19T06:05:12;3.00;99.90
40434;DHT22;26146;51.114;5.654;2023-01-19T06:09:21;3.10;99.90
40434;DHT22;26146;51.114;5.654;2023-01-19T06:13:22;2.90;99.90
40434;DHT22;26146;51.114;5.654;2023-01-19T06:17:23;3.00;99.90
40434;DHT22;26146;51.114;5.654;2023-01-19T06:21:24;3.00;99.90
40434;DHT22;26146;51.114;5.654;2023-01-19T06:25:25;3.00;99.90
40434;DHT22;26146;51.114;5.654;2023-01-19T06:29:27;3.00;99.90
40434;DHT22;26146;51.114;5.654;2023-01-19T06:33:30;3.10;99.90
40434;DHT22;26146;51.114;5.654;2023-01-19T06:37:31;3.10;99.90
40434;DHT22;26146;51.114;5.654;2023-01-19T06:41:33;3.20;99.90
40434;DHT22;26146;51.114;5.654;2023-01-19T06:45:34;3.20;99.90
40434;DHT22;26146;51.114;5.654;2023-01-19T06:49:35;3.10;99.90
40434;DHT22;26146;51.114;5.654;2023-01-19T06:53:36;3.20;99.90
40434;DHT22;26146;51.114;5.654;2023-01-19T06:57:38;3.30;99.90
40434;DHT22;26146;51.114;5.654;2023-01-19T07:01:39;3.20;99.90
40434;DHT22;26146;51.114;5.654;2023-01-19T07:05:40;3.30;99.90
40434;DHT22;26146;51.114;5.654;2023-01-19T07:09:42;3.30;99.90
40434;DHT22;26146;51.114;5.654;2023-01-19T07:13:43;3.10;99.90
40434;DHT22;26146;51.114;5.654;2023-01-19T07:17:44;3.10;99.90
40434;DHT22;26146;51.114;5.654;2023-01-19T07:21:45;3.10;99.90
40434;DHT22;26146;51.114;5.654;2023-01-19T07:25:46;3.10;99.90
40434;DHT22;26146;51.114;5.654;2023-01-19T07:29:47;3.10;99.90
40434;DHT22;26146;51.114;5.654;2023-01-19T07:33:49;3.10;99.90
40434;DHT22;26146;51.114;5.654;2023-01-19T07:37:50;3.20;99.90
40434;DHT22;26146;51.114;5.654;2023-01-19T07:41:51;3.10;99.90
40434;DHT22;26146;51.114;5.654;2023-01-19T07:45:58;3.00;99.90
40434;DHT22;26146;51.114;5.654;2023-01-19T07:49:59;3.10;99.90
40434;DHT22;26146;51.114;5.654;2023-01-19T07:54:01;3.10;99.90
40434;DHT22;26146;51.114;5.654;2023-01-19T07:58:02;3.00;99.90
40434;DHT22;26146;51.114;5.654;2023-01-19T08:02:09;3.00;99.90
40434;DHT22;26146;51.114;5.654;2023-01-19T08:06:19;3.10;99.90
40434;DHT22;26146;51.114;5.654;2023-01-19T08:10:20;3.00;99.90
40434;DHT22;26146;51.114;5.654;2023-01-19T08:14:24;3.20;99.90
40434;DHT22;26146;51.114;5.654;2023-01-19T08:18:25;3.20;99.90
40434;DHT22;26146;51.114;5.654;2023-01-19T08:22:26;3.20;99.90
40434;DHT22;26146;51.114;5.654;2023-01-19T08:26:30;3.20;99.90
40434;DHT22;26146;51.114;5.654;2023-01-19T08:30:32;3.30;99.90
40434;DHT22;26146;51.114;5.654;2023-01-19T08:34:33;3.40;99.90
40434;DHT22;26146;51.114;5.654;2023-01-19T08:38:36;3.30;99.90
40434;DHT22;26146;51.114;5.654;2023-01-19T08:42:40;3.30;99.90
40434;DHT22;26146;51.114;5.654;2023-01-19T08:46:41;3.30;99.90
40434;DHT22;26146;51.114;5.654;2023-01-19T08:50:47;3.20;99.90
40434;DHT22;26146;51.114;5.654;2023-01-19T08:54:48;3.40;99.90
40434;DHT22;26146;51.114;5.654;2023-01-19T08:58:49;3.40;99.90
40434;DHT22;26146;51.114;5.654;2023-01-19T09:02:53;3.40;99.90
40434;DHT22;26146;51.114;5.654;2023-01-19T09:06:54;3.40;99.90
40434;DHT22;26146;51.114;5.654;2023-01-19T09:10:55;3.40;99.90
40434;DHT22;26146;51.114;5.654;2023-01-19T09:14:56;3.50;99.90
40434;DHT22;26146;51.114;5.654;2023-01-19T09:18:57;3.60;99.90
40434;DHT22;26146;51.114;5.654;2023-01-19T09:22:58;3.90;99.90
40434;DHT22;26146;51.114;5.654;2023-01-19T09:27:00;3.80;99.90
40434;DHT22;26146;51.114;5.654;2023-01-19T09:31:05;3.80;99.90
40434;DHT22;26146;51.114;5.654;2023-01-19T09:35:07;3.80;99.90
40434;DHT22;26146;51.114;5.654;2023-01-19T09:39:08;3.70;99.90
40434;DHT22;26146;51.114;5.654;2023-01-19T09:47:29;3.70;99.90
40434;DHT22;26146;51.114;5.654;2023-01-19T09:51:37;3.70;99.90
40434;DHT22;26146;51.114;5.654;2023-01-19T09:55:42;4.10;99.90
40434;DHT22;26146;51.114;5.654;2023-01-19T09:59:44;4.30;99.90
40434;DHT22;26146;51.114;5.654;2023-01-19T10:03:49;4.60;99.90
40434;DHT22;26146;51.114;5.654;2023-01-19T10:17:06;4.60;99.90
40434;DHT22;26146;51.114;5.654;2023-01-19T10:25:18;4.90;99.90
40434;DHT22;26146;51.114;5.654;2023-01-19T10:29:36;5.10;99.90
40434;DHT22;26146;51.114;5.654;2023-01-19T10:33:40;5.40;99.90
40434;DHT22;26146;51.114;5.654;2023-01-19T10:37:41;5.70;99.90
40434;DHT22;26146;51.114;5.654;2023-01-19T10:41:51;5.70;99.90
40434;DHT22;26146;51.114;5.654;2023-01-19T10:45:53;5.80;99.90
40434;DHT22;26146;51.114;5.654;2023-01-19T10:49:54;5.90;99.90
40434;DHT22;26146;51.114;5.654;2023-01-19T10:57:58;5.90;99.90
40434;DHT22;26146;51.114;5.654;2023-01-19T11:14:21;6.90;99.90
40434;DHT22;26146;51.114;5.654;2023-01-19T11:18:27;6.90;99.90
40434;DHT22;26146;51.114;5.654;2023-01-19T11:22:31;7.00;99.90
40434;DHT22;26146;51.114;5.654;2023-01-19T11:31:02;7.50;99.90
40434;DHT22;26146;51.114;5.654;2023-01-19T11:39:48;7.40;99.90
40434;DHT22;26146;51.114;5.654;2023-01-19T11:44:30;7.00;99.90
40434;DHT22;26146;51.114;5.654;2023-01-19T11:48:36;6.80;99.90
40434;DHT22;26146;51.114;5.654;2023-01-19T11:57:11;6.10;99.90
40434;DHT22;26146;51.114;5.654;2023-01-19T12:01:33;5.70;99.90
40434;DHT22;26146;51.114;5.654;2023-01-19T12:05:38;5.60;99.90
40434;DHT22;26146;51.114;5.654;2023-01-19T12:09:45;5.70;99.90
40434;DHT22;26146;51.114;5.654;2023-01-19T12:13:48;5.90;99.90
40434;DHT22;26146;51.114;5.654;2023-01-19T12:17:54;5.80;99.90
40434;DHT22;26146;51.114;5.654;2023-01-19T12:22:01;5.90;99.90
40434;DHT22;26146;51.114;5.654;2023-01-19T12:26:30;6.10;99.90
40434;DHT22;26146;51.114;5.654;2023-01-19T12:30:32;6.00;99.90
40434;DHT22;26146;51.114;5.654;2023-01-19T12:34:48;6.00;99.90
40434;DHT22;26146;51.114;5.654;2023-01-19T12:39:16;5.90;99.90
40434;DHT22;26146;51.114;5.654;2023-01-19T12:43:16;5.90;99.90
40434;DHT22;26146;51.114;5.654;2023-01-19T12:47:20;5.70;99.90
40434;DHT22;26146;51.114;5.654;2023-01-19T12:51:25;5.70;99.90
40434;DHT22;26146;51.114;5.654;2023-01-19T12:55:30;5.50;99.90
40434;DHT22;26146;51.114;5.654;2023-01-19T12:59:36;5.40;99.90
40434;DHT22;26146;51.114;5.654;2023-01-19T13:04:00;5.40;99.90
40434;DHT22;26146;51.114;5.654;2023-01-19T13:21:04;5.40;99.90
40434;DHT22;26146;51.114;5.654;2023-01-19T13:25:10;5.40;99.90
40434;DHT22;26146;51.114;5.654;2023-01-19T13:29:34;5.40;99.90
40434;DHT22;26146;51.114;5.654;2023-01-19T13:33:51;5.20;99.90
40434;DHT22;26146;51.114;5.654;2023-01-19T13:37:52;5.10;99.90
40434;DHT22;26146;51.114;5.654;2023-01-19T13:41:56;4.80;99.90
40434;DHT22;26146;51.114;5.654;2023-01-19T13:45:59;4.80;99.90
40434;DHT22;26146;51.114;5.654;2023-01-19T13:50:01;5.10;99.90
40434;DHT22;26146;51.114;5.654;2023-01-19T13:54:02;5.00;99.90
40434;DHT22;26146;51.114;5.654;2023-01-19T13:58:03;5.10;99.90
40434;DHT22;26146;51.114;5.654;2023-01-19T14:02:11;5.10;99.90
40434;DHT22;26146;51.114;5.654;2023-01-19T14:06:39;5.10;99.90
40434;DHT22;26146;51.114;5.654;2023-01-19T14:10:45;5.20;99.90
40434;DHT22;26146;51.114;5.654;2023-01-19T14:14:46;5.30;99.90
40434;DHT22;26146;51.114;5.654;2023-01-19T14:18:58;5.40;99.90
40434;DHT22;26146;51.114;5.654;2023-01-19T14:22:59;5.40;99.90
40434;DHT22;26146;51.114;5.654;2023-01-19T14:31:23;5.30;99.90
40434;DHT22;26146;51.114;5.654;2023-01-19T14:35:27;5.20;99.90
40434;DHT22;26146;51.114;5.654;2023-01-19T14:39:32;5.00;99.90
40434;DHT22;26146;51.114;5.654;2023-01-19T14:43:33;4.90;99.90
40434;DHT22;26146;51.114;5.654;2023-01-19T14:47:37;4.80;99.90
40434;DHT22;26146;51.114;5.654;2023-01-19T14:51:39;4.70;99.90
40434;DHT22;26146;51.114;5.654;2023-01-19T14:55:55;4.60;99.90
40434;DHT22;26146;51.114;5.654;2023-01-19T14:59:59;4.70;99.90
40434;DHT22;26146;51.114;5.654;2023-01-19T15:04:00;4.70;99.90
40434;DHT22;26146;51.114;5.654;2023-01-19T15:08:02;4.60;99.90
40434;DHT22;26146;51.114;5.654;2023-01-19T15:12:07;4.60;99.90
40434;DHT22;26146;51.114;5.654;2023-01-19T15:16:10;4.60;99.90
40434;DHT22;26146;51.114;5.654;2023-01-19T15:20:18;4.60;99.90
40434;DHT22;26146;51.114;5.654;2023-01-19T15:24:19;4.50;99.90
40434;DHT22;26146;51.114;5.654;2023-01-19T15:28:22;4.50;99.90
40434;DHT22;26146;51.114;5.654;2023-01-19T15:32:24;4.40;99.90
40434;DHT22;26146;51.114;5.654;2023-01-19T15:36:25;4.40;99.90
40434;DHT22;26146;51.114;5.654;2023-01-19T15:40:26;4.30;99.90
40434;DHT22;26146;51.114;5.654;2023-01-19T15:44:28;4.30;99.90
40434;DHT22;26146;51.114;5.654;2023-01-19T15:48:32;4.30;99.90
40434;DHT22;26146;51.114;5.654;2023-01-19T15:52:36;4.30;99.90
40434;DHT22;26146;51.114;5.654;2023-01-19T15:56:37;4.40;99.90
40434;DHT22;26146;51.114;5.654;2023-01-19T16:00:38;4.30;99.90
40434;DHT22;26146;51.114;5.654;2023-01-19T16:04:39;4.30;99.90
40434;DHT22;26146;51.114;5.654;2023-01-19T16:08:41;4.20;99.90
40434;DHT22;26146;51.114;5.654;2023-01-19T16:12:43;4.20;99.90
40434;DHT22;26146;51.114;5.654;2023-01-19T16:16:44;4.10;99.90
40434;DHT22;26146;51.114;5.654;2023-01-19T16:20:48;4.00;99.90
40434;DHT22;26146;51.114;5.654;2023-01-19T16:24:49;3.90;99.90
40434;DHT22;26146;51.114;5.654;2023-01-19T16:28:51;3.80;99.90
40434;DHT22;26146;51.114;5.654;2023-01-19T16:33:21;3.80;99.90
40434;DHT22;26146;51.114;5.654;2023-01-19T16:42:42;3.60;99.90
40434;DHT22;26146;51.114;5.654;2023-01-19T16:47:38;3.50;99.90
40434;DHT22;26146;51.114;5.654;2023-01-19T16:56:36;3.40;99.90
40434;DHT22;26146;51.114;5.654;2023-01-19T17:00:37;3.30;99.90
40434;DHT22;26146;51.114;5.654;2023-01-19T17:04:38;3.20;99.90
40434;DHT22;26146;51.114;5.654;2023-01-19T17:08:42;3.10;99.90
40434;DHT22;26146;51.114;5.654;2023-01-19T17:12:43;3.10;99.90
40434;DHT22;26146;51.114;5.654;2023-01-19T17:16:47;3.10;99.90
40434;DHT22;26146;51.114;5.654;2023-01-19T17:20:48;3.10;99.90
40434;DHT22;26146;51.114;5.654;2023-01-19T17:24:49;3.10;99.90
40434;DHT22;26146;51.114;5.654;2023-01-19T17:28:50;3.20;99.90
40434;DHT22;26146;51.114;5.654;2023-01-19T17:32:51;3.00;99.90
40434;DHT22;26146;51.114;5.654;2023-01-19T17:36:52;3.10;99.90
40434;DHT22;26146;51.114;5.654;2023-01-19T17:41:11;2.90;99.90
40434;DHT22;26146;51.114;5.654;2023-01-19T17:45:15;2.90;99.90
40434;DHT22;26146;51.114;5.654;2023-01-19T17:49:16;3.00;99.90
40434;DHT22;26146;51.114;5.654;2023-01-19T17:53:19;3.00;99.90
40434;DHT22;26146;51.114;5.654;2023-01-19T17:57:20;3.00;99.90
40434;DHT22;26146;51.114;5.654;2023-01-19T18:01:23;3.00;99.90
40434;DHT22;26146;51.114;5.654;2023-01-19T18:05:25;3.00;99.90
40434;DHT22;26146;51.114;5.654;2023-01-19T18:09:26;3.10;99.90
40434;DHT22;26146;51.114;5.654;2023-01-19T18:13:28;3.00;99.90
40434;DHT22;26146;51.114;5.654;2023-01-19T18:17:29;2.90;99.90
40434;DHT22;26146;51.114;5.654;2023-01-19T18:21:31;3.10;99.90
40434;DHT22;26146;51.114;5.654;2023-01-19T18:25:32;3.00;99.90
40434;DHT22;26146;51.114;5.654;2023-01-19T18:29:33;2.90;99.90
40434;DHT22;26146;51.114;5.654;2023-01-19T18:33:34;3.00;99.90
40434;DHT22;26146;51.114;5.654;2023-01-19T18:37:36;2.90;99.90
40434;DHT22;26146;51.114;5.654;2023-01-19T18:41:37;2.90;99.90
40434;DHT22;26146;51.114;5.654;2023-01-19T18:45:44;2.80;99.90
40434;DHT22;26146;51.114;5.654;2023-01-19T18:49:47;2.80;99.90
40434;DHT22;26146;51.114;5.654;2023-01-19T18:53:48;2.90;99.90
40434;DHT22;26146;51.114;5.654;2023-01-19T18:57:50;2.90;99.90
40434;DHT22;26146;51.114;5.654;2023-01-19T19:01:51;2.80;99.90
40434;DHT22;26146;51.114;5.654;2023-01-19T19:05:53;2.60;99.90
40434;DHT22;26146;51.114;5.654;2023-01-19T19:09:54;2.70;99.90
40434;DHT22;26146;51.114;5.654;2023-01-19T19:13:58;2.70;99.90
40434;DHT22;26146;51.114;5.654;2023-01-19T19:18:00;2.70;99.90
40434;DHT22;26146;51.114;5.654;2023-01-19T19:22:01;2.70;99.90
40434;DHT22;26146;51.114;5.654;2023-01-19T19:26:08;2.50;99.90
40434;DHT22;26146;51.114;5.654;2023-01-19T19:30:12;2.50;99.90
40434;DHT22;26146;51.114;5.654;2023-01-19T19:34:14;2.60;99.90
40434;DHT22;26146;51.114;5.654;2023-01-19T19:38:15;2.60;99.90
40434;DHT22;26146;51.114;5.654;2023-01-19T19:42:16;2.50;99.90
40434;DHT22;26146;51.114;5.654;2023-01-19T19:46:19;2.50;99.90
40434;DHT22;26146;51.114;5.654;2023-01-19T19:50:20;2.50;99.90
40434;DHT22;26146;51.114;5.654;2023-01-19T19:54:21;2.50;99.90
40434;DHT22;26146;51.114;5.654;2023-01-19T19:58:23;2.50;99.90
40434;DHT22;26146;51.114;5.654;2023-01-19T20:02:24;2.50;99.90
40434;DHT22;26146;51.114;5.654;2023-01-19T20:06:26;2.50;99.90
40434;DHT22;26146;51.114;5.654;2023-01-19T20:10:27;2.50;99.90
40434;DHT22;26146;51.114;5.654;2023-01-19T20:14:29;2.40;99.90
40434;DHT22;26146;51.114;5.654;2023-01-19T20:18:31;2.30;99.90
40434;DHT22;26146;51.114;5.654;2023-01-19T20:22:33;2.40;99.90
40434;DHT22;26146;51.114;5.654;2023-01-19T20:26:38;2.40;99.90
40434;DHT22;26146;51.114;5.654;2023-01-19T20:30:40;2.40;99.90
40434;DHT22;26146;51.114;5.654;2023-01-19T20:34:41;2.40;99.90
40434;DHT22;26146;51.114;5.654;2023-01-19T20:38:42;2.30;99.90
40434;DHT22;26146;51.114;5.654;2023-01-19T20:42:43;2.40;99.90
40434;DHT22;26146;51.114;5.654;2023-01-19T20:46:45;2.30;99.90
40434;DHT22;26146;51.114;5.654;2023-01-19T20:50:46;2.30;99.90
40434;DHT22;26146;51.114;5.654;2023-01-19T20:54:47;2.20;99.90
40434;DHT22;26146;51.114;5.654;2023-01-19T20:58:48;2.30;99.90
40434;DHT22;26146;51.114;5.654;2023-01-19T21:02:49;2.20;99.90
40434;DHT22;26146;51.114;5.654;2023-01-19T21:06:50;2.40;99.90
40434;DHT22;26146;51.114;5.654;2023-01-19T21:10:55;2.30;99.90
40434;DHT22;26146;51.114;5.654;2023-01-19T21:14:56;2.30;99.90
40434;DHT22;26146;51.114;5.654;2023-01-19T21:18:57;2.30;99.90
40434;DHT22;26146;51.114;5.654;2023-01-19T21:22:58;2.30;99.90
40434;DHT22;26146;51.114;5.654;2023-01-19T21:26:59;2.20;99.90
40434;DHT22;26146;51.114;5.654;2023-01-19T21:31:11;2.20;99.90
40434;DHT22;26146;51.114;5.654;2023-01-19T21:35:13;2.00;99.90
40434;DHT22;26146;51.114;5.654;2023-01-19T21:39:14;2.10;99.90
40434;DHT22;26146;51.114;5.654;2023-01-19T21:43:15;2.10;99.90
40434;DHT22;26146;51.114;5.654;2023-01-19T21:47:17;2.10;99.90
40434;DHT22;26146;51.114;5.654;2023-01-19T21:51:18;2.10;99.90
40434;DHT22;26146;51.114;5.654;2023-01-19T21:55:19;2.10;99.90
40434;DHT22;26146;51.114;5.654;2023-01-19T21:59:19;2.20;99.90
40434;DHT22;26146;51.114;5.654;2023-01-19T22:03:20;2.20;99.90
40434;DHT22;26146;51.114;5.654;2023-01-19T22:07:24;2.20;99.90
40434;DHT22;26146;51.114;5.654;2023-01-19T22:11:25;2.10;99.90
40434;DHT22;26146;51.114;5.654;2023-01-19T22:15:27;2.10;99.90
40434;DHT22;26146;51.114;5.654;2023-01-19T22:19:28;2.00;99.90
40434;DHT22;26146;51.114;5.654;2023-01-19T22:23:29;2.10;99.90
40434;DHT22;26146;51.114;5.654;2023-01-19T22:27:30;2.10;99.90
40434;DHT22;26146;51.114;5.654;2023-01-19T22:31:32;2.20;99.90
40434;DHT22;26146;51.114;5.654;2023-01-19T22:35:33;2.20;99.90
40434;DHT22;26146;51.114;5.654;2023-01-19T22:39:34;2.40;99.90
40434;DHT22;26146;51.114;5.654;2023-01-19T22:43:35;2.40;99.90
40434;DHT22;26146;51.114;5.654;2023-01-19T22:47:36;2.40;99.90
40434;DHT22;26146;51.114;5.654;2023-01-19T22:51:37;2.50;99.90
40434;DHT22;26146;51.114;5.654;2023-01-19T22:55:38;2.40;99.90
40434;DHT22;26146;51.114;5.654;2023-01-19T22:59:39;2.50;99.90
40434;DHT22;26146;51.114;5.654;2023-01-19T23:03:41;2.50;99.90
40434;DHT22;26146;51.114;5.654;2023-01-19T23:07:42;2.60;99.90
40434;DHT22;26146;51.114;5.654;2023-01-19T23:11:45;2.50;99.90
40434;DHT22;26146;51.114;5.654;2023-01-19T23:15:50;2.50;99.90
40434;DHT22;26146;51.114;5.654;2023-01-19T23:19:51;2.70;99.90
40434;DHT22;26146;51.114;5.654;2023-01-19T23:23:54;2.80;99.90
40434;DHT22;26146;51.114;5.654;2023-01-19T23:27:55;2.90;99.90
40434;DHT22;26146;51.114;5.654;2023-01-19T23:32:12;2.90;99.90
40434;DHT22;26146;51.114;5.654;2023-01-19T23:36:14;3.00;99.90
40434;DHT22;26146;51.114;5.654;2023-01-19T23:40:15;3.00;99.90
40434;DHT22;26146;51.114;5.654;2023-01-19T23:44:16;2.80;99.90
40434;DHT22;26146;51.114;5.654;2023-01-19T23:48:17;2.70;99.90
40434;DHT22;26146;51.114;5.654;2023-01-19T23:52:18;2.80;99.90
40434;DHT22;26146;51.114;5.654;2023-01-19T23:56:30;2.80;99.90
